sensor_id;sensor_type;location;lat;lon;timestamp;temperature;humidity
28069;DHT22;15382;47.578;8.086;2023-06-24T00:09:54;14.90;99.90
28069;DHT22;15382;47.578;8.086;2023-06-24T00:19:54;14.30;99.90
28069;DHT22;15382;47.578;8.086;2023-06-24T00:29:55;14.90;99.90
28069;DHT22;15382;47.578;8.086;2023-06-24T00:39:56;14.90;99.90
28069;DHT22;15382;47.578;8.086;2023-06-24T00:49:57;14.10;99.90
28069;DHT22;15382;47.578;8.086;2023-06-24T00:59:58;14.20;99.90
28069;DHT22;15382;47.578;8.086;2023-06-24T01:10:00;14.20;99.90
28069;DHT22;15382;47.578;8.086;2023-06-24T01:20:23;14.00;99.90
28069;DHT22;15382;47.578;8.086;2023-06-24T01:40:36;13.70;99.90
28069;DHT22;15382;47.578;8.086;2023-06-24T01:50:44;13.60;99.90
28069;DHT22;15382;47.578;8.086;2023-06-24T02:00:45;14.10;99.90
28069;DHT22;15382;47.578;8.086;2023-06-24T02:10:46;13.90;99.90
28069;DHT22;15382;47.578;8.086;2023-06-24T02:20:48;13.80;99.90
28069;DHT22;15382;47.578;8.086;2023-06-24T02:30:48;13.60;99.90
28069;DHT22;15382;47.578;8.086;2023-06-24T02:40:49;14.10;99.90
28069;DHT22;15382;47.578;8.086;2023-06-24T02:50:51;14.10;99.90
28069;DHT22;15382;47.578;8.086;2023-06-24T03:00:52;14.10;99.90
28069;DHT22;15382;47.578;8.086;2023-06-24T03:11:04;13.90;99.90
28069;DHT22;15382;47.578;8.086;2023-06-24T03:21:07;13.80;99.90
28069;DHT22;15382;47.578;8.086;2023-06-24T03:31:08;13.80;99.90
28069;DHT22;15382;47.578;8.086;2023-06-24T03:41:09;13.80;99.90
28069;DHT22;15382;47.578;8.086;2023-06-24T03:51:10;13.90;99.90
28069;DHT22;15382;47.578;8.086;2023-06-24T04:01:12;13.90;99.90
28069;DHT22;15382;47.578;8.086;2023-06-24T04:11:12;14.10;99.90
28069;DHT22;15382;47.578;8.086;2023-06-24T04:21:13;14.20;99.90
28069;DHT22;15382;47.578;8.086;2023-06-24T04:31:15;14.30;99.90
28069;DHT22;15382;47.578;8.086;2023-06-24T04:41:18;14.20;99.90
28069;DHT22;15382;47.578;8.086;2023-06-24T04:51:19;14.40;99.90
28069;DHT22;15382;47.578;8.086;2023-06-24T05:01:21;14.70;99.90
28069;DHT22;15382;47.578;8.086;2023-06-24T05:11:22;14.90;99.90
28069;DHT22;15382;47.578;8.086;2023-06-24T05:21:23;15.30;99.90
28069;DHT22;15382;47.578;8.086;2023-06-24T05:31:24;15.60;99.90
28069;DHT22;15382;47.578;8.086;2023-06-24T05:41:24;16.00;99.90
28069;DHT22;15382;47.578;8.086;2023-06-24T05:51:25;16.30;99.90
28069;DHT22;15382;47.578;8.086;2023-06-24T06:01:26;16.40;99.90
28069;DHT22;15382;47.578;8.086;2023-06-24T06:11:27;16.60;99.90
28069;DHT22;15382;47.578;8.086;2023-06-24T06:21:28;16.90;99.90
28069;DHT22;15382;47.578;8.086;2023-06-24T06:31:28;17.40;99.90
28069;DHT22;15382;47.578;8.086;2023-06-24T06:41:29;17.70;99.90
28069;DHT22;15382;47.578;8.086;2023-06-24T06:51:30;18.30;99.90
28069;DHT22;15382;47.578;8.086;2023-06-24T07:01:30;18.70;99.90
28069;DHT22;15382;47.578;8.086;2023-06-24T07:11:31;19.40;99.90
28069;DHT22;15382;47.578;8.086;2023-06-24T07:21:32;19.90;99.90
28069;DHT22;15382;47.578;8.086;2023-06-24T07:31:32;19.80;99.90
28069;DHT22;15382;47.578;8.086;2023-06-24T07:41:33;20.30;99.90
28069;DHT22;15382;47.578;8.086;2023-06-24T07:51:34;20.70;99.90
28069;DHT22;15382;47.578;8.086;2023-06-24T08:01:35;22.00;99.90
28069;DHT22;15382;47.578;8.086;2023-06-24T08:11:36;22.70;99.90
28069;DHT22;15382;47.578;8.086;2023-06-24T08:21:36;23.30;99.90
28069;DHT22;15382;47.578;8.086;2023-06-24T08:31:38;23.80;99.90
28069;DHT22;15382;47.578;8.086;2023-06-24T08:41:38;24.50;99.90
28069;DHT22;15382;47.578;8.086;2023-06-24T08:51:40;24.90;99.90
28069;DHT22;15382;47.578;8.086;2023-06-24T09:01:41;24.80;99.90
28069;DHT22;15382;47.578;8.086;2023-06-24T09:11:41;25.00;99.90
28069;DHT22;15382;47.578;8.086;2023-06-24T09:21:44;26.00;99.90
28069;DHT22;15382;47.578;8.086;2023-06-24T09:31:45;26.20;99.90
28069;DHT22;15382;47.578;8.086;2023-06-24T09:41:49;26.30;98.80
28069;DHT22;15382;47.578;8.086;2023-06-24T09:51:59;26.40;99.50
28069;DHT22;15382;47.578;8.086;2023-06-24T10:02:02;26.70;97.90
28069;DHT22;15382;47.578;8.086;2023-06-24T10:12:03;27.10;97.50
28069;DHT22;15382;47.578;8.086;2023-06-24T10:22:07;27.10;96.80
28069;DHT22;15382;47.578;8.086;2023-06-24T10:32:08;27.50;97.60
28069;DHT22;15382;47.578;8.086;2023-06-24T10:52:29;26.00;97.50
28069;DHT22;15382;47.578;8.086;2023-06-24T11:02:29;27.20;96.50
28069;DHT22;15382;47.578;8.086;2023-06-24T11:12:31;27.30;96.50
28069;DHT22;15382;47.578;8.086;2023-06-24T11:22:31;28.00;96.20
28069;DHT22;15382;47.578;8.086;2023-06-24T11:32:36;28.10;94.30
28069;DHT22;15382;47.578;8.086;2023-06-24T11:42:37;28.30;96.00
28069;DHT22;15382;47.578;8.086;2023-06-24T11:52:43;28.70;96.20
28069;DHT22;15382;47.578;8.086;2023-06-24T12:02:44;28.80;94.20
28069;DHT22;15382;47.578;8.086;2023-06-24T12:12:45;28.90;94.80
28069;DHT22;15382;47.578;8.086;2023-06-24T12:22:47;29.30;94.20
28069;DHT22;15382;47.578;8.086;2023-06-24T12:32:51;29.70;92.50
28069;DHT22;15382;47.578;8.086;2023-06-24T12:42:52;30.00;92.10
28069;DHT22;15382;47.578;8.086;2023-06-24T12:52:52;29.70;91.80
28069;DHT22;15382;47.578;8.086;2023-06-24T13:02:53;29.30;92.40
28069;DHT22;15382;47.578;8.086;2023-06-24T13:12:54;29.50;91.80
28069;DHT22;15382;47.578;8.086;2023-06-24T13:22:56;28.50;92.60
28069;DHT22;15382;47.578;8.086;2023-06-24T13:32:56;28.40;92.80
28069;DHT22;15382;47.578;8.086;2023-06-24T13:42:57;29.00;92.30
28069;DHT22;15382;47.578;8.086;2023-06-24T13:52:58;29.50;91.40
28069;DHT22;15382;47.578;8.086;2023-06-24T14:02:58;29.40;90.60
28069;DHT22;15382;47.578;8.086;2023-06-24T14:13:00;29.80;90.10
28069;DHT22;15382;47.578;8.086;2023-06-24T14:23:00;29.70;89.00
28069;DHT22;15382;47.578;8.086;2023-06-24T14:33:01;29.70;89.40
28069;DHT22;15382;47.578;8.086;2023-06-24T14:43:02;29.20;90.50
28069;DHT22;15382;47.578;8.086;2023-06-24T14:53:03;29.60;87.70
28069;DHT22;15382;47.578;8.086;2023-06-24T15:03:03;29.50;85.10
28069;DHT22;15382;47.578;8.086;2023-06-24T15:13:04;29.40;84.90
28069;DHT22;15382;47.578;8.086;2023-06-24T15:23:06;28.70;87.00
28069;DHT22;15382;47.578;8.086;2023-06-24T15:33:06;29.10;85.40
28069;DHT22;15382;47.578;8.086;2023-06-24T15:43:07;28.70;87.90
28069;DHT22;15382;47.578;8.086;2023-06-24T15:53:08;28.30;86.80
28069;DHT22;15382;47.578;8.086;2023-06-24T16:03:08;28.10;87.30
28069;DHT22;15382;47.578;8.086;2023-06-24T16:13:09;27.90;84.90
28069;DHT22;15382;47.578;8.086;2023-06-24T16:23:10;28.00;86.50
28069;DHT22;15382;47.578;8.086;2023-06-24T16:33:12;27.50;85.50
28069;DHT22;15382;47.578;8.086;2023-06-24T16:43:13;27.50;87.70
28069;DHT22;15382;47.578;8.086;2023-06-24T16:53:14;27.10;87.30
28069;DHT22;15382;47.578;8.086;2023-06-24T17:03:14;27.10;89.20
28069;DHT22;15382;47.578;8.086;2023-06-24T17:13:15;26.90;87.00
28069;DHT22;15382;47.578;8.086;2023-06-24T17:23:16;26.90;90.50
28069;DHT22;15382;47.578;8.086;2023-06-24T17:33:16;26.50;90.20
28069;DHT22;15382;47.578;8.086;2023-06-24T17:43:17;26.60;90.20
28069;DHT22;15382;47.578;8.086;2023-06-24T17:53:18;26.40;91.00
28069;DHT22;15382;47.578;8.086;2023-06-24T18:03:18;26.40;91.80
28069;DHT22;15382;47.578;8.086;2023-06-24T18:13:19;27.50;91.90
28069;DHT22;15382;47.578;8.086;2023-06-24T18:23:20;28.10;91.10
28069;DHT22;15382;47.578;8.086;2023-06-24T18:33:20;28.20;90.40
28069;DHT22;15382;47.578;8.086;2023-06-24T18:43:21;28.60;90.20
28069;DHT22;15382;47.578;8.086;2023-06-24T18:53:22;26.90;90.90
28069;DHT22;15382;47.578;8.086;2023-06-24T19:03:22;24.60;95.10
28069;DHT22;15382;47.578;8.086;2023-06-24T19:13:23;23.60;98.70
28069;DHT22;15382;47.578;8.086;2023-06-24T19:23:23;22.80;99.90
28069;DHT22;15382;47.578;8.086;2023-06-24T19:33:24;22.30;99.90
28069;DHT22;15382;47.578;8.086;2023-06-24T19:43:25;22.10;99.90
28069;DHT22;15382;47.578;8.086;2023-06-24T19:53:26;21.50;99.90
28069;DHT22;15382;47.578;8.086;2023-06-24T20:03:27;20.70;99.90
28069;DHT22;15382;47.578;8.086;2023-06-24T20:13:27;20.60;99.90
28069;DHT22;15382;47.578;8.086;2023-06-24T20:23:28;20.40;99.90
28069;DHT22;15382;47.578;8.086;2023-06-24T20:33:29;20.10;99.90
28069;DHT22;15382;47.578;8.086;2023-06-24T20:43:30;19.90;99.90
28069;DHT22;15382;47.578;8.086;2023-06-24T20:53:30;19.90;99.90
28069;DHT22;15382;47.578;8.086;2023-06-24T21:03:31;19.70;99.90
28069;DHT22;15382;47.578;8.086;2023-06-24T21:13:32;19.80;99.90
28069;DHT22;15382;47.578;8.086;2023-06-24T21:23:32;19.70;99.90
28069;DHT22;15382;47.578;8.086;2023-06-24T21:33:33;19.60;99.90
28069;DHT22;15382;47.578;8.086;2023-06-24T21:43:34;19.30;99.90
28069;DHT22;15382;47.578;8.086;2023-06-24T21:53:37;19.20;99.90
28069;DHT22;15382;47.578;8.086;2023-06-24T22:03:37;19.00;99.90
28069;DHT22;15382;47.578;8.086;2023-06-24T22:13:38;18.70;99.90
28069;DHT22;15382;47.578;8.086;2023-06-24T22:23:39;18.50;99.90
28069;DHT22;15382;47.578;8.086;2023-06-24T22:33:40;18.20;99.90
28069;DHT22;15382;47.578;8.086;2023-06-24T22:43:40;18.10;99.90
28069;DHT22;15382;47.578;8.086;2023-06-24T22:53:41;18.10;99.90
28069;DHT22;15382;47.578;8.086;2023-06-24T23:03:42;18.10;99.90
28069;DHT22;15382;47.578;8.086;2023-06-24T23:13:42;18.00;99.90
28069;DHT22;15382;47.578;8.086;2023-06-24T23:23:43;17.90;99.90
28069;DHT22;15382;47.578;8.086;2023-06-24T23:33:44;17.90;99.90
28069;DHT22;15382;47.578;8.086;2023-06-24T23:43:45;17.90;99.90
28069;DHT22;15382;47.578;8.086;2023-06-24T23:53:46;17.70;99.90
